Time;durP1;ratioP1;P1;durP2;ratioP2;P2;SDS_P1;SDS_P2;PMS_P1;PMS_P2;Temp;Humidity;BMP_temperature;BMP_pressure;BME280_temperature;BME280_humidity;BME280_pressure;Samples;Min_cycle;Max_cycle;Signal;HPM_P1;HPM_P2
2022/04/19 00:00:05;;;;;;;;;8.50;8.50;;;;;16.77;45.67;101089.13;5059195;28;45372;-64
2022/04/19 00:02:30;;;;;;;;;8.75;7.25;;;;;16.79;45.88;101096.19;5053526;28;45407;-64
2022/04/19 00:04:58;;;;;;;;;10.00;8.50;;;;;16.74;45.35;101089.28;5057835;28;46217;-64
2022/04/19 00:07:24;;;;;;;;;7.50;7.50;;;;;16.68;45.34;101085.94;5059060;28;45532;-64
2022/04/19 00:09:49;;;;;;;;;10.00;9.75;;;;;16.75;45.41;101097.28;5058954;28;45256;-64
2022/04/19 00:12:15;;;;;;;;;8.00;7.00;;;;;16.78;45.88;101101.66;5059279;28;45268;-64
2022/04/19 00:14:40;;;;;;;;;9.00;7.25;;;;;16.65;45.35;101082.53;5073347;28;45267;-64
2022/04/19 00:17:06;;;;;;;;;7.25;6.25;;;;;16.78;45.20;101099.81;5058795;28;45526;-64
2022/04/19 00:19:31;;;;;;;;;9.00;6.75;;;;;16.72;45.00;101085.78;5046188;28;45551;-64
2022/04/19 00:21:57;;;;;;;;;5.00;5.00;;;;;16.75;44.77;101093.72;5059259;28;45456;-64
2022/04/19 00:24:22;;;;;;;;;4.25;4.25;;;;;16.71;45.07;101093.00;5058938;28;45507;-64
2022/04/19 00:26:47;;;;;;;;;5.50;5.50;;;;;16.60;44.57;101082.78;5050335;28;45739;-64
2022/04/19 00:29:13;;;;;;;;;6.00;6.00;;;;;16.53;44.55;101078.66;5052163;28;45390;-64
2022/04/19 00:31:38;;;;;;;;;5.25;4.75;;;;;16.58;44.75;101095.47;5067150;28;45280;-64
2022/04/19 00:34:03;;;;;;;;;7.75;7.75;;;;;16.55;44.57;101086.69;5058753;28;45447;-64
2022/04/19 00:36:29;;;;;;;;;7.75;5.25;;;;;16.45;44.90;101076.38;5059098;28;45456;-64
2022/04/19 00:38:54;;;;;;;;;7.25;5.50;;;;;16.55;44.70;101086.69;5058599;28;45402;-64
2022/04/19 00:41:20;;;;;;;;;6.00;6.00;;;;;16.56;44.51;101089.28;5057778;28;45459;-64
2022/04/19 00:43:45;;;;;;;;;9.00;7.00;;;;;16.34;44.68;101046.44;5072133;28;45522;-64
2022/04/19 00:46:11;;;;;;;;;7.00;6.25;;;;;16.46;45.01;101077.25;5058351;28;45331;-64
2022/04/19 00:48:36;;;;;;;;;7.00;7.00;;;;;16.41;44.86;101069.41;5074216;28;45385;-64
2022/04/19 00:51:02;;;;;;;;;6.25;6.25;;;;;16.21;44.67;101040.78;5055150;28;45258;-64
2022/04/19 00:53:29;;;;;;;;;7.75;7.50;;;;;16.46;44.92;101080.81;5058663;28;45194;-64
2022/04/19 00:55:55;;;;;;;;;6.00;6.00;;;;;16.47;44.60;101082.56;5048751;28;45629;-64
2022/04/19 00:58:20;;;;;;;;;5.50;5.00;;;;;16.34;44.76;101061.69;5061679;28;45228;-64
2022/04/19 01:00:45;;;;;;;;;9.25;6.00;;;;;16.39;44.74;101091.97;5061497;28;45384;-64
2022/04/19 01:03:11;;;;;;;;;7.25;7.25;;;;;16.37;44.80;101078.63;5052732;28;45663;-64
2022/04/19 01:05:36;;;;;;;;;7.25;5.75;;;;;16.26;44.69;101062.97;5062181;28;46015;-64
2022/04/19 01:08:02;;;;;;;;;5.25;5.25;;;;;16.14;44.65;101049.25;5061718;28;45413;-64
2022/04/19 01:10:28;;;;;;;;;6.00;5.00;;;;;16.30;44.74;101082.53;5062132;28;45412;-64
2022/04/19 01:15:38;;;;;;;;;5.75;5.75;;;;;16.19;44.83;101068.75;5062279;28;45492;-64
2022/04/19 01:18:03;;;;;;;;;7.75;6.00;;;;;16.06;44.65;101052.34;5064893;28;45425;-64
2022/04/19 01:20:29;;;;;;;;;7.50;6.75;;;;;16.07;44.95;101057.66;5061989;28;45390;-64
2022/04/19 01:22:55;;;;;;;;;8.75;5.00;;;;;16.14;44.99;101074.38;5061655;28;45412;-64
2022/04/19 01:25:20;;;;;;;;;6.50;6.00;;;;;15.94;45.24;101048.47;5061616;28;46130;-64
2022/04/19 01:27:48;;;;;;;;;5.75;5.75;;;;;15.99;45.04;101069.75;5047607;28;45405;-64
2022/04/19 01:30:16;;;;;;;;;5.00;5.00;;;;;15.95;44.83;101060.94;5061195;28;45381;-64
2022/04/19 01:32:41;;;;;;;;;5.50;5.50;;;;;15.99;44.91;101073.34;5059072;28;45251;-64
2022/04/19 01:35:15;;;;;;;;;6.00;5.00;;;;;16.03;44.89;101074.91;5060226;28;47307;-64
2022/04/19 01:37:46;;;;;;;;;5.25;4.75;;;;;16.01;44.74;101071.44;5076736;28;45592;-64
2022/04/19 01:40:22;;;;;;;;;6.00;5.00;;;;;15.97;44.50;101064.47;5077340;28;45566;-64
2022/04/19 01:42:49;;;;;;;;;7.75;5.50;;;;;15.89;44.51;101053.22;5061079;28;45261;-64
2022/04/19 01:45:23;;;;;;;;;4.00;4.00;;;;;15.80;44.47;101034.81;5059200;28;47853;-64
2022/04/19 01:47:50;;;;;;;;;8.00;7.25;;;;;15.93;44.50;101069.09;5048451;28;45517;-64
2022/04/19 01:50:17;;;;;;;;;7.25;6.00;;;;;15.90;44.53;101071.97;5080241;27;45350;-64
2022/04/19 01:52:44;;;;;;;;;7.75;7.25;;;;;15.71;44.67;101044.19;5071808;28;45494;-64
2022/04/19 01:55:13;;;;;;;;;6.00;6.00;;;;;15.76;44.47;101058.31;5058604;28;47172;-64
2022/04/19 01:57:42;;;;;;;;;6.75;6.75;;;;;15.73;44.83;101051.22;5060710;28;45513;-64
2022/04/19 02:00:08;;;;;;;;;5.75;5.25;;;;;15.82;44.79;101065.19;5061305;28;45362;-64
2022/04/19 02:02:34;;;;;;;;;6.75;5.75;;;;;15.68;44.54;101053.25;5060065;28;45406;-64
2022/04/19 02:04:59;;;;;;;;;7.00;5.25;;;;;15.67;44.95;101056.91;5060898;28;46622;-64
2022/04/19 02:07:25;;;;;;;;;6.00;6.00;;;;;15.70;44.75;101066.66;5060194;28;45389;-64
2022/04/19 02:09:51;;;;;;;;;4.25;4.25;;;;;15.62;44.61;101058.97;5052047;28;45405;-64
2022/04/19 02:12:16;;;;;;;;;7.00;7.00;;;;;15.61;44.60;101059.03;5054517;28;45454;-64
2022/04/19 02:14:42;;;;;;;;;3.75;3.75;;;;;15.44;44.63;101036.50;5059356;28;46870;-64
2022/04/19 02:17:09;;;;;;;;;6.50;6.50;;;;;15.64;44.49;101067.81;5060515;28;45631;-64
2022/04/19 02:19:35;;;;;;;;;7.75;7.00;;;;;15.60;44.66;101065.34;5060619;28;45444;-64
2022/04/19 02:22:00;;;;;;;;;7.50;7.00;;;;;15.54;44.32;101062.00;5060898;28;45457;-64
2022/04/19 02:24:26;;;;;;;;;11.25;9.00;;;;;15.52;44.75;101057.66;5078134;27;46965;-64
2022/04/19 02:26:51;;;;;;;;;4.75;4.75;;;;;15.44;44.51;101058.03;5053024;28;45231;-64
2022/04/19 02:29:16;;;;;;;;;4.00;4.00;;;;;15.44;44.56;101057.16;5054597;28;45224;-64
2022/04/19 02:31:42;;;;;;;;;3.75;3.75;;;;;15.40;44.41;101053.72;5084988;27;45752;-64
2022/04/19 02:34:07;;;;;;;;;4.00;4.00;;;;;15.38;44.32;101052.91;5091572;27;48077;-64
2022/04/19 02:36:33;;;;;;;;;5.00;5.00;;;;;15.42;44.24;101068.00;5060449;28;45319;-64
2022/04/19 02:38:59;;;;;;;;;3.75;3.75;;;;;15.38;44.47;101061.88;5060341;28;45362;-64
2022/04/19 02:41:25;;;;;;;;;3.00;3.00;;;;;15.38;44.16;101061.00;5060798;28;45437;-64
2022/04/19 02:43:50;;;;;;;;;6.00;5.00;;;;;15.34;44.20;101062.09;5056638;28;46363;-64
2022/04/19 02:46:16;;;;;;;;;3.25;3.00;;;;;15.31;44.04;101055.03;5060325;28;45437;-64
2022/04/19 02:48:41;;;;;;;;;5.50;4.00;;;;;15.20;44.06;101041.22;5060306;28;45379;-64
2022/04/19 02:51:07;;;;;;;;;6.00;4.75;;;;;15.26;43.88;101059.75;5060256;28;45656;-64
2022/04/19 02:53:32;;;;;;;;;4.00;4.00;;;;;15.15;44.35;101043.25;5058890;28;46006;-64
2022/04/19 02:55:59;;;;;;;;;6.00;4.00;;;;;15.20;44.32;101057.34;5060621;28;45200;-64
2022/04/19 02:58:25;;;;;;;;;5.00;4.00;;;;;15.20;44.21;101054.66;5064384;28;45369;-64
2022/04/19 03:00:51;;;;;;;;;5.00;4.50;;;;;15.25;44.05;101058.03;5056954;28;45234;-64
2022/04/19 03:03:16;;;;;;;;;4.00;4.00;;;;;15.05;43.82;101031.19;5059819;28;45323;-64
2022/04/19 03:05:41;;;;;;;;;4.00;4.00;;;;;15.17;43.84;101055.69;5059015;28;45287;-64
2022/04/19 03:08:07;;;;;;;;;4.00;4.00;;;;;15.17;43.81;101055.69;5059941;28;45787;-64
2022/04/19 03:10:33;;;;;;;;;4.25;3.50;;;;;15.15;43.91;101054.91;5060294;28;45410;-64
2022/04/19 03:12:58;;;;;;;;;3.00;3.00;;;;;15.11;44.07;101047.91;5059695;28;45974;-64
2022/04/19 03:15:24;;;;;;;;;6.00;4.75;;;;;14.91;43.81;101015.69;5058433;28;45393;-64
2022/04/19 03:17:49;;;;;;;;;2.75;2.75;;;;;14.90;43.68;101016.63;5058447;28;45478;-64
2022/04/19 03:20:15;;;;;;;;;4.00;4.00;;;;;15.05;43.69;101045.50;5060086;28;45452;-64
2022/04/19 03:28:09;;;;;;;;;6.50;4.50;;;;;15.00;43.10;101051.09;5046012;28;45394;-64
2022/04/19 03:30:35;;;;;;;;;7.00;4.75;;;;;14.96;43.67;101056.69;5058931;28;45453;-64
2022/04/19 03:33:00;;;;;;;;;5.25;3.00;;;;;14.88;43.68;101040.03;5059515;28;45440;-64
2022/04/19 03:35:26;;;;;;;;;3.00;3.00;;;;;14.88;43.91;101042.72;5046673;28;45423;-64
2022/04/19 03:37:51;;;;;;;;;5.25;4.00;;;;;14.70;43.76;101018.44;5056887;28;45316;-64
2022/04/19 03:40:17;;;;;;;;;3.25;3.25;;;;;14.82;43.71;101044.72;5059553;28;45452;-63
2022/04/19 03:42:42;;;;;;;;;6.50;4.00;;;;;14.78;43.71;101040.47;5057889;28;47537;-64
2022/04/19 03:45:09;;;;;;;;;2.75;2.75;;;;;14.73;43.75;101031.69;5059589;28;45157;-64
2022/04/19 03:47:35;;;;;;;;;2.00;2.00;;;;;14.74;43.52;101036.16;5059847;28;45328;-64
2022/04/19 03:50:01;;;;;;;;;4.25;4.00;;;;;14.66;43.61;101024.88;5059685;28;45315;-64
2022/04/19 03:52:27;;;;;;;;;3.00;1.75;;;;;14.58;43.88;101010.88;5059198;28;45367;-64
2022/04/19 03:54:52;;;;;;;;;1.75;1.75;;;;;14.68;43.65;101039.09;5058208;28;45359;-63
2022/04/19 03:57:18;;;;;;;;;2.00;2.00;;;;;14.60;43.85;101025.13;5054451;28;45305;-64
2022/04/19 03:59:44;;;;;;;;;3.00;3.00;;;;;14.46;43.59;100990.81;5051252;28;45395;-63
2022/04/19 04:02:10;;;;;;;;;3.00;3.00;;;;;14.66;43.90;101032.94;5059337;28;45403;-64
2022/04/19 04:04:36;;;;;;;;;2.75;2.75;;;;;14.64;43.68;101027.63;5058616;28;45305;-64
2022/04/19 04:07:03;;;;;;;;;2.75;2.00;;;;;14.60;43.75;101025.13;5059015;28;45568;-64
2022/04/19 04:09:37;;;;;;;;;4.25;3.25;;;;;14.53;44.01;101008.38;5059248;28;45213;-63
2022/04/19 04:12:04;;;;;;;;;2.00;2.00;;;;;14.61;43.96;101017.00;5058962;28;46056;-64
2022/04/19 04:14:30;;;;;;;;;3.00;2.00;;;;;14.54;44.02;101026.25;5061066;28;45592;-64
2022/04/19 04:16:56;;;;;;;;;3.25;3.25;;;;;14.60;44.07;101042.16;5059079;28;45314;-64
2022/04/19 04:19:21;;;;;;;;;4.00;3.75;;;;;14.57;44.21;101034.19;5064599;28;45576;-65
2022/04/19 04:21:46;;;;;;;;;3.50;3.50;;;;;14.55;44.31;101027.13;5057743;28;48290;-64
2022/04/19 04:24:12;;;;;;;;;3.75;3.75;;;;;14.53;44.22;101027.19;5059239;28;45437;-64
2022/04/19 04:26:37;;;;;;;;;3.25;3.25;;;;;14.49;44.38;101020.22;5052275;28;45457;-64
2022/04/19 04:29:03;;;;;;;;;2.00;1.00;;;;;14.58;44.36;101037.75;5063243;28;45971;-64
2022/04/19 04:31:28;;;;;;;;;4.25;4.25;;;;;14.46;44.58;101018.53;5077989;27;48037;-64
2022/04/19 04:33:53;;;;;;;;;2.00;2.00;;;;;14.45;44.38;101022.19;5059094;28;45386;-63
2022/04/19 04:36:19;;;;;;;;;4.00;4.00;;;;;14.45;44.73;101018.63;5062444;28;45517;-64
2022/04/19 04:38:47;;;;;;;;;4.00;4.00;;;;;14.43;44.80;101023.16;5060805;28;45492;-64
2022/04/19 04:41:13;;;;;;;;;3.00;3.00;;;;;14.32;44.52;101018.28;5094959;27;47019;-64
2022/04/19 04:43:39;;;;;;;;;4.00;4.00;;;;;14.18;44.85;100997.41;5058606;28;45169;-64
2022/04/19 04:51:33;;;;;;;;;2.75;2.75;;;;;14.40;45.18;101039.41;5053015;28;45333;-64
2022/04/19 04:53:58;;;;;;;;;3.75;2.50;;;;;14.30;44.98;101033.59;5062106;28;45325;-64
2022/04/19 04:56:24;;;;;;;;;4.75;4.00;;;;;14.27;45.20;101026.53;5069733;28;45229;-64
2022/04/19 04:58:49;;;;;;;;;2.50;2.00;;;;;14.22;45.41;101022.31;5061611;28;45327;-65
2022/04/19 05:01:15;;;;;;;;;2.50;2.00;;;;;14.35;45.33;101044.09;5061322;28;46034;-64
2022/04/19 05:03:40;;;;;;;;;4.50;2.00;;;;;14.19;45.25;101025.13;5062256;28;45360;-64
2022/04/19 05:06:06;;;;;;;;;1.75;1.50;;;;;14.26;45.33;101042.69;5060908;28;45329;-64
2022/04/19 05:08:32;;;;;;;;;3.50;3.50;;;;;14.11;45.40;101014.69;5060919;28;45219;-64
2022/04/19 05:10:57;;;;;;;;;3.25;3.25;;;;;14.34;45.39;101047.75;5061612;28;45325;-64
2022/04/19 05:13:23;;;;;;;;;3.25;3.25;;;;;14.27;45.86;101039.94;5061424;28;45259;-64
2022/04/19 05:15:49;;;;;;;;;2.00;2.00;;;;;14.34;45.84;101056.66;5062078;28;45667;-64
2022/04/19 05:18:17;;;;;;;;;3.00;3.00;;;;;14.21;46.06;101028.59;5061429;28;45484;-64
2022/04/19 05:20:43;;;;;;;;;5.75;4.00;;;;;14.28;46.04;101048.88;5061700;28;45441;-64
2022/04/19 05:23:08;;;;;;;;;6.00;3.00;;;;;14.26;46.19;101050.75;5061517;28;45379;-64
2022/04/19 05:25:33;;;;;;;;;2.00;2.00;;;;;14.13;46.23;101025.38;5061797;28;45132;-64
2022/04/19 05:27:59;;;;;;;;;6.00;3.00;;;;;14.16;46.47;101039.53;5047754;28;45350;-64
2022/04/19 05:30:24;;;;;;;;;2.75;2.25;;;;;14.15;46.60;101039.59;5060937;28;46456;-64
2022/04/19 05:32:50;;;;;;;;;4.75;3.00;;;;;14.21;46.58;101048.25;5061085;28;45362;-64
2022/04/19 05:35:15;;;;;;;;;5.75;2.75;;;;;14.17;46.98;101059.22;5061597;28;45323;-64
2022/04/19 05:37:41;;;;;;;;;5.75;2.00;;;;;14.11;46.65;101043.38;5060750;28;45377;-64
2022/04/19 05:40:07;;;;;;;;;3.00;2.00;;;;;13.99;46.71;101034.88;5060499;28;45976;-64
2022/04/19 05:42:32;;;;;;;;;3.00;3.00;;;;;13.90;46.98;101008.44;5058545;28;46433;-64
2022/04/19 05:44:58;;;;;;;;;1.75;1.75;;;;;13.91;47.61;101012.84;5059166;28;45434;-70
2022/04/19 05:47:23;;;;;;;;;4.00;2.00;;;;;13.97;47.20;101025.16;5048413;28;45697;-71
2022/04/19 05:49:49;;;;;;;;;2.75;2.00;;;;;13.98;47.41;101035.84;5058511;28;45996;-71
2022/04/19 05:52:14;;;;;;;;;4.00;2.75;;;;;13.84;47.77;101027.47;5057813;28;45450;-71
2022/04/19 05:54:40;;;;;;;;;1.50;1.50;;;;;14.13;47.88;101057.59;5049996;28;45505;-64
2022/04/19 05:57:05;;;;;;;;;2.25;2.25;;;;;13.97;48.08;101034.09;5044914;28;45327;-64
2022/04/19 05:59:31;;;;;;;;;7.00;2.25;;;;;13.78;48.14;101014.31;5051350;28;46234;-64
2022/04/19 06:04:53;;;;;;;;;2.00;2.00;;;;;13.98;48.33;101043.91;5060750;28;46446;-64
2022/04/19 06:07:19;;;;;;;;;4.25;4.00;;;;;13.94;48.17;101042.25;5055804;28;45401;-64
2022/04/19 06:09:44;;;;;;;;;6.00;5.00;;;;;14.01;48.39;101046.41;5051600;28;46520;-64
2022/04/19 06:12:10;;;;;;;;;2.50;2.00;;;;;13.95;48.61;101041.34;5085950;27;46043;-64
2022/04/19 06:14:36;;;;;;;;;3.75;1.75;;;;;14.03;48.60;101049.03;5050978;28;45430;-64
2022/04/19 06:17:01;;;;;;;;;4.00;4.00;;;;;14.03;48.66;101055.31;5059581;28;45552;-64
2022/04/19 06:19:27;;;;;;;;;5.00;3.50;;;;;13.96;48.66;101043.06;5052341;28;46846;-64
2022/04/19 06:21:53;;;;;;;;;3.00;3.00;;;;;14.00;48.53;101055.44;5055404;28;45545;-64
2022/04/19 06:24:19;;;;;;;;;5.00;3.75;;;;;13.96;49.00;101050.25;5057609;28;45438;-64
2022/04/19 06:26:44;;;;;;;;;5.75;4.25;;;;;13.89;49.17;101039.75;5056427;28;45508;-64
2022/04/19 06:29:10;;;;;;;;;5.25;4.00;;;;;14.04;49.11;101061.53;5045539;28;47378;-63
2022/04/19 06:31:35;;;;;;;;;4.00;4.00;;;;;14.07;48.98;101064.97;5055720;28;45373;-63
2022/04/19 06:34:01;;;;;;;;;6.50;4.25;;;;;14.04;48.99;101057.03;5057869;28;45805;-64
2022/04/19 06:36:27;;;;;;;;;8.50;4.00;;;;;14.06;49.31;101065.88;5054097;28;45431;-63
2022/04/19 06:38:52;;;;;;;;;3.00;2.75;;;;;14.07;49.07;101061.41;5051169;28;48128;-64
2022/04/19 06:41:18;;;;;;;;;3.00;3.00;;;;;14.01;49.21;101049.09;5057916;28;45412;-64
2022/04/19 06:43:43;;;;;;;;;5.00;5.00;;;;;14.12;49.10;101066.59;5058197;28;45323;-64
2022/04/19 06:46:09;;;;;;;;;6.00;4.75;;;;;14.11;49.04;101051.41;5060356;28;45532;-63
2022/04/19 06:48:34;;;;;;;;;4.00;4.00;;;;;14.06;49.25;101044.41;5059100;28;46244;-63
2022/04/19 06:51:00;;;;;;;;;7.25;5.00;;;;;14.12;49.39;101056.72;5056600;28;45518;-63
2022/04/19 06:53:29;;;;;;;;;7.50;4.50;;;;;14.13;49.44;101050.41;5072412;27;45410;-64
2022/04/19 06:55:58;;;;;;;;;5.00;5.00;;;;;14.06;49.52;101051.59;5056118;28;45427;-65
2022/04/19 06:58:24;;;;;;;;;7.00;5.50;;;;;14.02;49.68;101041.94;5042754;28;45650;-65
2022/04/19 07:00:50;;;;;;;;;5.00;5.00;;;;;13.90;49.38;101022.72;5055378;28;45351;-65
2022/04/19 07:03:16;;;;;;;;;4.50;4.00;;;;;14.14;49.25;101060.22;5057782;28;45487;-65
2022/04/19 07:05:41;;;;;;;;;10.00;6.25;;;;;14.06;49.58;101046.22;5055821;28;45426;-65
2022/04/19 07:08:07;;;;;;;;;9.50;6.50;;;;;14.05;50.08;101042.69;5058598;28;46316;-65
2022/04/19 07:10:36;;;;;;;;;8.75;5.50;;;;;14.05;49.61;101055.25;5058639;28;45741;-65
2022/04/19 07:13:03;;;;;;;;;8.00;8.00;;;;;14.00;49.84;101042.00;5052132;28;45546;-65
2022/04/19 07:15:28;;;;;;;;;10.25;7.00;;;;;13.98;49.42;101034.94;5051430;28;45303;-65
2022/04/19 07:17:54;;;;;;;;;6.25;5.25;;;;;14.05;49.29;101053.41;5052953;28;45642;-65
2022/04/19 07:28:52;;;;;;;;;11.25;8.50;;;;;13.99;49.46;101034.88;4995060;28;45947;-65
2022/04/19 07:31:17;;;;;;;;;10.00;8.25;;;;;14.04;49.19;101019.44;4996021;28;45485;-65
2022/04/19 07:33:42;;;;;;;;;8.75;8.75;;;;;14.15;49.46;101027.06;5024269;28;45633;-65
2022/04/19 07:36:08;;;;;;;;;7.00;7.00;;;;;14.26;49.49;101050.75;5057526;28;45294;-65
2022/04/19 07:38:34;;;;;;;;;9.00;9.00;;;;;14.15;49.43;101023.50;5056437;28;47375;-65
2022/04/19 07:40:59;;;;;;;;;9.50;9.00;;;;;14.34;49.67;101050.44;5058534;28;45615;-65
2022/04/19 07:43:25;;;;;;;;;10.50;9.50;;;;;14.27;49.53;101028.34;5056948;28;45517;-65
2022/04/19 07:45:50;;;;;;;;;9.75;8.00;;;;;14.43;49.35;101044.66;5071147;28;45595;-65
2022/04/19 07:48:16;;;;;;;;;9.00;8.25;;;;;14.46;49.80;101048.06;5050538;28;46095;-65
2022/04/19 07:50:42;;;;;;;;;10.00;8.50;;;;;14.49;49.23;101044.41;5055812;28;46948;-64
2022/04/19 07:53:08;;;;;;;;;11.00;6.75;;;;;14.56;48.96;101048.53;5058369;28;45453;-65
2022/04/19 07:55:34;;;;;;;;;8.50;8.00;;;;;14.53;49.09;101040.63;5058791;28;45407;-65
2022/04/19 07:57:59;;;;;;;;;9.50;8.50;;;;;14.54;49.08;101031.63;5056672;28;48220;-65
2022/04/19 08:00:27;;;;;;;;;10.50;8.25;;;;;14.55;49.52;101033.38;5058326;28;45355;-65
2022/04/19 08:02:54;;;;;;;;;11.25;9.50;;;;;14.66;49.05;101043.69;5058396;28;45381;-65
2022/04/19 08:05:20;;;;;;;;;8.75;7.75;;;;;14.77;48.82;101040.53;5060589;28;45384;-65
2022/04/19 08:07:48;;;;;;;;;8.75;8.75;;;;;14.76;48.60;101028.00;5060554;28;47897;-64
2022/04/19 08:10:13;;;;;;;;;10.00;7.75;;;;;14.85;48.58;101029.41;5059645;28;45589;-65
2022/04/19 08:12:38;;;;;;;;;10.00;9.50;;;;;14.74;48.19;101008.41;5061598;28;45425;-65
2022/04/19 08:15:04;;;;;;;;;10.00;9.00;;;;;14.91;48.01;101038.06;5061879;28;45610;-65
2022/04/19 08:17:32;;;;;;;;;15.00;10.75;;;;;14.85;48.35;101027.63;5046997;28;47133;-65
2022/04/19 08:19:57;;;;;;;;;9.25;8.50;;;;;14.82;48.48;101019.69;5060580;28;45683;-65
2022/04/19 08:22:23;;;;;;;;;9.50;8.25;;;;;14.75;48.19;101007.44;5048217;28;45719;-65
2022/04/19 08:24:49;;;;;;;;;9.75;9.00;;;;;15.01;47.61;101043.91;5063949;28;45410;-65
2022/04/19 08:27:15;;;;;;;;;10.00;10.00;;;;;14.98;47.55;101034.16;5060536;28;46436;-65
2022/04/19 08:29:42;;;;;;;;;9.25;8.00;;;;;15.00;47.40;101032.28;5061915;28;45549;-65
2022/04/19 08:32:07;;;;;;;;;11.00;9.25;;;;;15.15;47.41;101038.75;5061368;28;45387;-65
2022/04/19 08:34:32;;;;;;;;;8.75;7.00;;;;;15.21;47.08;101042.09;5061844;28;45531;-65
2022/04/19 08:36:58;;;;;;;;;9.25;7.75;;;;;15.23;47.16;101042.91;5060141;28;47197;-65
2022/04/19 08:39:23;;;;;;;;;9.75;8.00;;;;;15.14;46.60;101031.63;5061800;28;45324;-65
2022/04/19 08:41:49;;;;;;;;;10.00;7.00;;;;;15.19;46.62;101034.97;5061273;28;45937;-65
2022/04/19 08:44:15;;;;;;;;;8.50;7.25;;;;;15.13;46.15;101026.31;5060235;28;45899;-65
2022/04/19 08:46:42;;;;;;;;;8.50;8.00;;;;;15.26;46.54;101037.38;5057300;28;48162;-65
2022/04/19 08:49:09;;;;;;;;;9.25;8.00;;;;;15.19;46.15;101021.53;5050327;28;45885;-65
2022/04/19 08:51:36;;;;;;;;;7.75;7.75;;;;;15.31;46.75;101029.97;5054749;28;45375;-65
2022/04/19 08:59:31;;;;;;;;;8.25;7.50;;;;;15.50;46.18;101032.63;5048346;28;45412;-65
2022/04/19 09:01:58;;;;;;;;;8.00;6.75;;;;;15.56;45.78;101024.28;5052192;28;45423;-65
2022/04/19 09:04:25;;;;;;;;;15.25;12.00;;;;;15.34;45.99;100984.09;5057545;28;45447;-65
2022/04/19 09:06:59;;;;;;;;;9.00;8.25;;;;;15.57;45.61;101008.06;5058101;28;47100;-65
2022/04/19 09:09:30;;;;;;;;;7.75;7.75;;;;;15.62;45.45;101013.22;5076301;28;45414;-65
2022/04/19 09:12:07;;;;;;;;;10.00;10.00;;;;;15.54;45.84;101002.81;5051358;28;45635;-65
2022/04/19 09:14:32;;;;;;;;;13.50;8.25;;;;;15.65;45.77;101013.06;5065953;28;45546;-67
2022/04/19 09:17:04;;;;;;;;;9.50;7.50;;;;;15.64;45.48;101007.75;5058384;28;47081;-67
2022/04/19 09:19:29;;;;;;;;;7.75;7.00;;;;;15.49;45.44;100977.97;5053023;28;45453;-67
2022/04/19 09:21:55;;;;;;;;;9.50;8.75;;;;;15.67;45.14;101002.19;5054171;28;45285;-66
2022/04/19 09:24:22;;;;;;;;;9.25;9.25;;;;;15.75;45.92;101010.78;5049361;28;45847;-66
2022/04/19 09:26:49;;;;;;;;;12.00;9.25;;;;;15.84;45.20;101025.66;5067643;27;45700;-66
2022/04/19 09:29:22;;;;;;;;;14.25;11.25;;;;;15.80;44.94;101019.50;5058763;28;45721;-66
2022/04/19 09:31:52;;;;;;;;;9.75;9.00;;;;;15.73;45.22;101005.47;5053254;28;46937;-67
2022/04/19 09:34:33;;;;;;;;;10.00;9.50;;;;;15.72;45.78;100995.66;5060896;28;45536;-67
2022/04/19 09:37:13;;;;;;;;;12.00;10.50;;;;;15.78;45.86;100993.66;5060532;28;45708;-67
2022/04/19 09:39:40;;;;;;;;;12.25;11.00;;;;;15.86;45.99;100994.13;5061264;28;45377;-67
2022/04/19 09:42:08;;;;;;;;;13.50;12.50;;;;;15.71;45.30;100947.28;5059425;28;45565;-67
2022/04/19 09:44:38;;;;;;;;;11.50;9.75;;;;;16.03;45.29;101001.34;5059634;28;45469;-67
2022/04/19 09:47:14;;;;;;;;;12.25;10.25;;;;;15.99;45.11;100987.19;5060404;28;45443;-67
2022/04/19 09:49:53;;;;;;;;;12.25;11.00;;;;;16.03;45.28;101002.22;5060522;28;45463;-67
2022/04/19 09:52:22;;;;;;;;;13.00;11.00;;;;;16.07;45.42;100997.53;5040686;28;45440;-67
2022/04/19 09:55:08;;;;;;;;;14.00;12.25;;;;;16.05;45.33;100985.97;5057376;28;45419;-67
2022/04/19 09:57:39;;;;;;;;;12.25;10.25;;;;;16.13;45.75;100982.91;5059122;28;45366;-67
2022/04/19 10:00:13;;;;;;;;;12.00;10.25;;;;;16.17;45.52;100988.06;5047386;28;45426;-67
2022/04/19 10:08:11;;;;;;;;;10.25;10.00;;;;;16.19;45.27;100967.28;5056746;28;45498;-67
2022/04/19 10:10:41;;;;;;;;;14.25;11.50;;;;;16.32;45.05;100972.88;5053322;28;45488;-67
2022/04/19 10:13:07;;;;;;;;;12.00;10.50;;;;;16.26;45.66;100952.53;5057281;28;45476;-67
2022/04/19 10:15:33;;;;;;;;;15.50;14.00;;;;;16.37;45.46;100957.38;5049863;28;45396;-67
2022/04/19 10:17:59;;;;;;;;;11.00;11.00;;;;;16.38;45.20;100951.03;5053375;28;47026;-67
2022/04/19 10:20:32;;;;;;;;;14.75;13.00;;;;;16.49;46.25;100953.16;5057226;28;45524;-67
2022/04/19 10:23:08;;;;;;;;;22.50;16.25;;;;;16.47;45.12;100934.38;5058066;28;45359;-67
2022/04/19 10:25:46;;;;;;;;;16.25;15.00;;;;;16.65;44.86;100954.03;5044975;28;45469;-67
2022/04/19 10:28:25;;;;;;;;;11.00;11.00;;;;;16.59;45.33;100935.53;5057991;28;46553;-66
2022/04/19 10:30:52;;;;;;;;;13.50;13.50;;;;;16.73;44.73;100959.03;5051357;28;45429;-67
2022/04/19 10:33:42;;;;;;;;;18.00;15.50;;;;;16.76;45.24;100960.69;5059308;28;45470;-67
2022/04/19 10:36:22;;;;;;;;;20.25;14.25;;;;;16.77;45.18;100947.13;5059503;28;45493;-67
2022/04/19 10:39:06;;;;;;;;;16.50;13.25;;;;;16.91;44.64;100961.72;5058472;28;45451;-67
2022/04/19 10:41:51;;;;;;;;;12.75;11.00;;;;;16.85;44.34;100939.50;5058983;28;45270;-67
2022/04/19 10:44:31;;;;;;;;;11.50;10.50;;;;;16.88;44.55;100946.56;5059061;28;45386;-67
2022/04/19 10:47:02;;;;;;;;;12.75;12.25;;;;;17.01;44.38;100957.53;5048330;28;45689;-67
2022/04/19 10:49:28;;;;;;;;;11.00;8.50;;;;;16.90;44.31;100939.25;5058110;28;47170;-67
2022/04/19 10:51:59;;;;;;;;;11.00;11.00;;;;;16.87;44.74;100927.78;5052993;28;45373;-67
2022/04/19 10:55:02;;;;;;;;;13.25;13.25;;;;;17.00;44.85;100945.88;5058296;28;45568;-67
2022/04/19 11:00:47;;;;;;;;;13.25;11.75;;;;;17.09;44.32;100931.00;5058712;28;45689;-67
2022/04/19 11:03:16;;;;;;;;;11.00;11.00;;;;;17.12;44.17;100924.56;5057586;28;45546;-67
2022/04/19 11:05:43;;;;;;;;;11.25;11.25;;;;;17.15;44.31;100924.38;5051257;28;45449;-67
2022/04/19 11:08:25;;;;;;;;;16.00;14.25;;;;;17.04;44.06;100900.75;5058624;28;45588;-67
2022/04/19 11:11:23;;;;;;;;;16.75;11.50;;;;;17.20;44.50;100920.47;5055858;28;46798;-67
2022/04/19 11:14:17;;;;;;;;;13.00;12.00;;;;;17.23;43.95;100930.22;5058361;27;45665;-67
2022/04/19 11:16:42;;;;;;;;;11.00;10.50;;;;;17.23;43.98;100922.13;5052417;28;45334;-67
2022/04/19 11:19:17;;;;;;;;;14.50;13.00;;;;;17.17;44.08;100895.50;5050323;28;45941;-67
2022/04/19 11:21:54;;;;;;;;;14.50;13.25;;;;;17.33;44.51;100920.63;5052770;28;46142;-67
2022/04/19 11:24:57;;;;;;;;;13.75;11.75;;;;;17.44;44.63;100913.72;5059823;28;45607;-67
2022/04/19 11:27:24;;;;;;;;;13.00;13.00;;;;;17.35;44.20;100888.16;5049036;28;45503;-67
2022/04/19 11:29:51;;;;;;;;;16.25;16.25;;;;;17.56;44.03;100915.72;5058366;28;45386;-67
2022/04/19 11:32:22;;;;;;;;;23.50;17.25;;;;;17.59;44.20;100904.72;5042475;28;46270;-67
2022/04/19 11:35:04;;;;;;;;;18.50;15.75;;;;;17.58;43.75;100897.63;5048255;28;45796;-66
2022/04/19 11:37:30;;;;;;;;;18.25;17.75;;;;;17.55;44.50;100898.66;5043176;28;45402;-66
2022/04/19 11:48:29;;;;;;;;;17.75;14.25;;;;;17.81;43.76;100901.66;5048774;28;45636;-63
2022/04/19 11:51:05;;;;;;;;;17.25;14.25;;;;;17.90;43.43;100909.19;5046067;28;45793;-63
2022/04/19 11:53:31;;;;;;;;;15.00;14.25;;;;;17.85;43.44;100902.31;5033601;28;46290;-64
2022/04/19 11:55:59;;;;;;;;;13.00;13.00;;;;;17.99;43.96;100918.56;5078242;27;45488;-64
2022/04/19 11:58:25;;;;;;;;;15.00;15.00;;;;;18.03;44.43;100916.59;5050675;28;45879;-64
2022/04/19 12:01:03;;;;;;;;;17.50;15.50;;;;;18.04;44.32;100912.91;5049235;28;45374;-64
2022/04/19 12:03:30;;;;;;;;;17.25;15.50;;;;;18.11;44.06;100911.59;5048084;28;46375;-64
2022/04/19 12:06:05;;;;;;;;;18.50;16.00;;;;;18.15;44.56;100913.13;5057296;28;45573;-63
2022/04/19 12:08:37;;;;;;;;;18.75;17.00;;;;;18.18;43.75;100907.53;5052984;28;45478;-64
2022/04/19 12:11:05;;;;;;;;;14.75;14.75;;;;;18.22;43.82;100911.78;5050380;28;45696;-65